STV4 EDDH-EDDK
Flight info
| Callsign | STV4 |
|---|---|
| Flight time | 0h 49m |
| Altitude | 22000 |
| Route | IDEKO7G IDEKO N850 WRB P12 ESADU T858 KOPAG KOPAG1B |
| Aircraft | CL60/M-SADE3FGHIJ3J4J7P2RWXY/LB1V1D1 |
Departure
| Time | 2026-05-06 18:41 |
|---|---|
| Airport | Hamburg Helmut Schmidt Airport (EDDH) |
Arrival
| Time | 2026-05-06 19:31 |
|---|---|
| Airport | Cologne Bonn Airport (EDDK) |
| Time | Latitude | Longitude | Altitude | Speed | Heading |
|---|---|---|---|---|---|
| 2026-05-06 17:52 | 53.62736 | 9.98790 | 37 ft | 0 kts | 241° |
| 2026-05-06 17:55 | 53.62736 | 9.98791 | 37 ft | 0 kts | 241° |
| 2026-05-06 18:21 | 53.62736 | 9.98790 | 37 ft | 0 kts | 241° |
| 2026-05-06 18:26 | 53.62739 | 9.98799 | 37 ft | 2 kts | 245° |
| 2026-05-06 18:27 | 53.62741 | 9.98821 | 37 ft | 2 kts | 279° |
| 2026-05-06 18:27 | 53.62735 | 9.98843 | 37 ft | 2 kts | 313° |
| 2026-05-06 18:27 | 53.62727 | 9.98853 | 37 ft | 0 kts | 333° |
| 2026-05-06 18:27 | 53.62726 | 9.98854 | 37 ft | 0 kts | 333° |
| 2026-05-06 18:36 | 53.62733 | 9.98848 | 37 ft | 10 kts | 333° |
| 2026-05-06 18:36 | 53.62790 | 9.98801 | 37 ft | 6 kts | 334° |
| 2026-05-06 18:37 | 53.62833 | 9.98837 | 37 ft | 9 kts | 51° |
| 2026-05-06 18:37 | 53.62878 | 9.98932 | 36 ft | 11 kts | 51° |
| 2026-05-06 18:37 | 53.62931 | 9.99042 | 34 ft | 12 kts | 50° |
| 2026-05-06 18:37 | 53.62979 | 9.99138 | 34 ft | 10 kts | 50° |
| 2026-05-06 18:38 | 53.63012 | 9.99203 | 33 ft | 5 kts | 49° |
| 2026-05-06 18:38 | 53.63053 | 9.99262 | 32 ft | 8 kts | 25° |
| 2026-05-06 18:38 | 53.63095 | 9.99289 | 31 ft | 6 kts | 17° |
| 2026-05-06 18:38 | 53.63135 | 9.99314 | 31 ft | 3 kts | 19° |
| 2026-05-06 18:39 | 53.63139 | 9.99316 | 31 ft | 0 kts | 13° |
| 2026-05-06 18:39 | 53.63140 | 9.99316 | 31 ft | 1 kts | 13° |
| 2026-05-06 18:40 | 53.63217 | 9.99346 | 30 ft | 8 kts | 12° |
| 2026-05-06 18:40 | 53.63272 | 9.99362 | 30 ft | 7 kts | 6° |
| 2026-05-06 18:40 | 53.63324 | 9.99351 | 30 ft | 4 kts | 332° |
| 2026-05-06 18:40 | 53.63330 | 9.99345 | 30 ft | 4 kts | 332° |
| 2026-05-06 18:41 | 53.63555 | 9.99156 | 34 ft | 67 kts | 332° |
| 2026-05-06 18:41 | 53.64218 | 9.98583 | 70 ft | 139 kts | 336° |
| 2026-05-06 18:41 | 53.65183 | 9.97752 | 506 ft | 164 kts | 333° |
| 2026-05-06 18:41 | 53.66199 | 9.96812 | 1301 ft | 171 kts | 333° |
| 2026-05-06 18:42 | 53.67247 | 9.95841 | 2050 ft | 180 kts | 333° |
| 2026-05-06 18:42 | 53.68351 | 9.94824 | 2867 ft | 187 kts | 335° |
| 2026-05-06 18:42 | 53.69588 | 9.93799 | 3741 ft | 212 kts | 334° |
| 2026-05-06 18:42 | 53.70871 | 9.92322 | 4385 ft | 233 kts | 310° |
| 2026-05-06 18:43 | 53.71515 | 9.89837 | 4784 ft | 241 kts | 273° |
| 2026-05-06 18:43 | 53.71204 | 9.86927 | 4861 ft | 265 kts | 251° |
| 2026-05-06 18:43 | 53.70577 | 9.83946 | 4854 ft | 267 kts | 250° |
| 2026-05-06 18:43 | 53.69947 | 9.80967 | 4858 ft | 267 kts | 250° |
| 2026-05-06 18:44 | 53.69323 | 9.77992 | 4861 ft | 267 kts | 251° |
| 2026-05-06 18:44 | 53.68720 | 9.75028 | 4862 ft | 268 kts | 251° |
| 2026-05-06 18:44 | 53.68089 | 9.71885 | 5322 ft | 296 kts | 251° |
| 2026-05-06 18:44 | 53.67457 | 9.68727 | 7167 ft | 285 kts | 250° |
| 2026-05-06 18:45 | 53.66834 | 9.65618 | 8601 ft | 285 kts | 250° |
| 2026-05-06 18:45 | 53.66179 | 9.62497 | 9338 ft | 287 kts | 245° |
| 2026-05-06 18:45 | 53.65084 | 9.59722 | 9665 ft | 282 kts | 226° |
| 2026-05-06 18:45 | 53.63475 | 9.57886 | 9744 ft | 279 kts | 204° |
| 2026-05-06 18:46 | 53.61600 | 9.57189 | 9748 ft | 278 kts | 189° |
| 2026-05-06 18:46 | 53.59642 | 9.56814 | 9751 ft | 276 kts | 189° |
| 2026-05-06 18:46 | 53.57698 | 9.56426 | 9794 ft | 289 kts | 189° |
| 2026-05-06 18:46 | 53.55598 | 9.56004 | 10571 ft | 311 kts | 189° |
| 2026-05-06 18:47 | 53.53414 | 9.55569 | 11759 ft | 318 kts | 190° |
| 2026-05-06 18:47 | 53.51225 | 9.55135 | 12921 ft | 323 kts | 190° |
| 2026-05-06 18:47 | 53.48960 | 9.54687 | 14064 ft | 327 kts | 190° |
| 2026-05-06 18:47 | 53.46701 | 9.54240 | 15144 ft | 332 kts | 190° |
| 2026-05-06 18:48 | 53.44409 | 9.53788 | 16230 ft | 335 kts | 190° |
| 2026-05-06 18:48 | 53.42081 | 9.53329 | 17275 ft | 338 kts | 189° |
| 2026-05-06 18:48 | 53.39717 | 9.52864 | 18259 ft | 341 kts | 189° |
| 2026-05-06 18:48 | 53.37333 | 9.52395 | 18954 ft | 351 kts | 189° |
| 2026-05-06 18:49 | 53.34864 | 9.51908 | 19223 ft | 361 kts | 189° |
| 2026-05-06 18:49 | 53.32364 | 9.51419 | 19476 ft | 357 kts | 189° |
| 2026-05-06 18:49 | 53.29906 | 9.50940 | 19707 ft | 353 kts | 189° |
| 2026-05-06 18:49 | 53.27467 | 9.50463 | 19750 ft | 353 kts | 189° |
| 2026-05-06 18:50 | 53.25014 | 9.49985 | 19752 ft | 351 kts | 189° |
| 2026-05-06 18:50 | 53.22575 | 9.49509 | 19752 ft | 351 kts | 189° |
| 2026-05-06 18:50 | 53.20118 | 9.49030 | 19752 ft | 350 kts | 190° |
| 2026-05-06 18:50 | 53.17684 | 9.48556 | 19752 ft | 351 kts | 189° |
| 2026-05-06 18:51 | 53.15221 | 9.48074 | 19907 ft | 368 kts | 189° |
| 2026-05-06 18:51 | 53.12627 | 9.47568 | 20080 ft | 370 kts | 189° |
| 2026-05-06 18:51 | 53.10113 | 9.47084 | 20323 ft | 360 kts | 189° |
| 2026-05-06 18:51 | 53.07623 | 9.46603 | 20577 ft | 355 kts | 190° |
| 2026-05-06 18:52 | 53.05194 | 9.46133 | 20829 ft | 355 kts | 190° |
| 2026-05-06 18:52 | 53.02699 | 9.45650 | 21085 ft | 356 kts | 190° |
| 2026-05-06 18:52 | 53.00206 | 9.45168 | 21341 ft | 358 kts | 190° |
| 2026-05-06 18:52 | 52.97720 | 9.44659 | 21596 ft | 359 kts | 191° |
| 2026-05-06 18:53 | 52.95206 | 9.44118 | 21741 ft | 368 kts | 191° |
| 2026-05-06 18:53 | 52.92630 | 9.43561 | 21755 ft | 383 kts | 191° |
| 2026-05-06 18:53 | 52.89969 | 9.42989 | 21754 ft | 389 kts | 191° |
| 2026-05-06 18:53 | 52.87179 | 9.42393 | 21753 ft | 389 kts | 191° |
| 2026-05-06 18:54 | 52.84403 | 9.41802 | 21751 ft | 387 kts | 191° |
| 2026-05-06 18:54 | 52.81710 | 9.41228 | 21751 ft | 386 kts | 190° |
| 2026-05-06 18:54 | 52.79130 | 9.40679 | 21752 ft | 386 kts | 191° |
| 2026-05-06 18:54 | 52.76397 | 9.40098 | 21753 ft | 386 kts | 191° |
| 2026-05-06 18:55 | 52.73653 | 9.39516 | 21753 ft | 386 kts | 190° |
| 2026-05-06 18:55 | 52.70932 | 9.38939 | 21753 ft | 386 kts | 191° |
| 2026-05-06 18:55 | 52.68341 | 9.38391 | 21752 ft | 386 kts | 191° |
| 2026-05-06 18:55 | 52.65612 | 9.37814 | 21753 ft | 386 kts | 191° |
| 2026-05-06 18:56 | 52.62855 | 9.37222 | 21752 ft | 386 kts | 191° |
| 2026-05-06 18:56 | 52.60173 | 9.36538 | 21753 ft | 386 kts | 192° |
| 2026-05-06 18:56 | 52.57570 | 9.35853 | 21752 ft | 386 kts | 192° |
| 2026-05-06 18:56 | 52.54909 | 9.35156 | 21752 ft | 386 kts | 192° |
| 2026-05-06 18:57 | 52.52190 | 9.34445 | 21752 ft | 386 kts | 191° |
| 2026-05-06 18:57 | 52.49498 | 9.33740 | 21752 ft | 386 kts | 191° |
| 2026-05-06 18:57 | 52.46899 | 9.33061 | 21751 ft | 386 kts | 191° |
| 2026-05-06 18:57 | 52.44159 | 9.32346 | 21750 ft | 386 kts | 191° |
| 2026-05-06 18:58 | 52.41405 | 9.31629 | 21751 ft | 386 kts | 191° |
| 2026-05-06 18:58 | 52.38731 | 9.30932 | 21751 ft | 386 kts | 192° |
| 2026-05-06 18:58 | 52.36023 | 9.30228 | 21750 ft | 386 kts | 191° |
| 2026-05-06 18:58 | 52.33313 | 9.29522 | 21750 ft | 386 kts | 192° |
| 2026-05-06 18:59 | 52.30669 | 9.28830 | 21749 ft | 386 kts | 191° |
| 2026-05-06 18:59 | 52.27978 | 9.28128 | 21750 ft | 386 kts | 191° |
| 2026-05-06 18:59 | 52.25246 | 9.27416 | 21748 ft | 386 kts | 192° |
| 2026-05-06 18:59 | 52.22549 | 9.26798 | 21749 ft | 386 kts | 189° |
| 2026-05-06 19:00 | 52.19849 | 9.26303 | 21749 ft | 387 kts | 189° |
| 2026-05-06 19:00 | 52.17134 | 9.25807 | 21749 ft | 387 kts | 189° |
| 2026-05-06 19:00 | 52.14407 | 9.25308 | 21749 ft | 387 kts | 189° |
| 2026-05-06 19:00 | 52.11739 | 9.24822 | 21749 ft | 387 kts | 189° |
| 2026-05-06 19:01 | 52.09021 | 9.24327 | 21749 ft | 387 kts | 189° |
| 2026-05-06 19:01 | 52.06298 | 9.23831 | 21748 ft | 387 kts | 189° |
| 2026-05-06 19:01 | 52.03574 | 9.23203 | 21749 ft | 386 kts | 192° |
| 2026-05-06 19:01 | 52.00919 | 9.22505 | 21749 ft | 385 kts | 192° |
| 2026-05-06 19:02 | 51.98236 | 9.21802 | 21749 ft | 385 kts | 192° |
| 2026-05-06 19:02 | 51.95573 | 9.21105 | 21749 ft | 386 kts | 192° |
| 2026-05-06 19:02 | 51.92882 | 9.20403 | 21749 ft | 386 kts | 192° |
| 2026-05-06 19:02 | 51.90248 | 9.19716 | 21749 ft | 386 kts | 192° |
| 2026-05-06 19:03 | 51.87665 | 9.19068 | 21749 ft | 386 kts | 191° |
| 2026-05-06 19:03 | 51.85220 | 9.18531 | 21748 ft | 386 kts | 190° |
| 2026-05-06 19:03 | 51.82760 | 9.17998 | 21749 ft | 386 kts | 190° |
| 2026-05-06 19:03 | 51.80158 | 9.17434 | 21749 ft | 386 kts | 190° |
| 2026-05-06 19:04 | 51.77637 | 9.16887 | 21749 ft | 386 kts | 190° |
| 2026-05-06 19:04 | 51.75091 | 9.16336 | 21749 ft | 386 kts | 190° |
| 2026-05-06 19:04 | 51.72586 | 9.15794 | 21749 ft | 386 kts | 190° |
| 2026-05-06 19:04 | 51.69980 | 9.15231 | 21749 ft | 386 kts | 190° |
| 2026-05-06 19:05 | 51.67321 | 9.14657 | 21749 ft | 386 kts | 190° |
| 2026-05-06 19:05 | 51.64622 | 9.14075 | 21749 ft | 386 kts | 190° |
| 2026-05-06 19:05 | 51.62001 | 9.13510 | 21749 ft | 386 kts | 190° |
| 2026-05-06 19:05 | 51.59316 | 9.12932 | 21749 ft | 386 kts | 190° |
| 2026-05-06 19:06 | 51.56607 | 9.12350 | 21748 ft | 386 kts | 190° |
| 2026-05-06 19:06 | 51.54001 | 9.11512 | 21752 ft | 383 kts | 200° |
| 2026-05-06 19:06 | 51.51641 | 9.09608 | 21753 ft | 380 kts | 216° |
| 2026-05-06 19:06 | 51.49677 | 9.06595 | 21751 ft | 380 kts | 232° |
| 2026-05-06 19:07 | 51.48317 | 9.02746 | 21745 ft | 382 kts | 244° |
| 2026-05-06 19:07 | 51.47259 | 8.98808 | 21744 ft | 382 kts | 245° |
| 2026-05-06 19:07 | 51.46191 | 8.94846 | 21747 ft | 382 kts | 245° |
| 2026-05-06 19:07 | 51.45119 | 8.90883 | 21748 ft | 382 kts | 245° |
| 2026-05-06 19:08 | 51.44052 | 8.86944 | 21749 ft | 382 kts | 245° |
| 2026-05-06 19:08 | 51.42963 | 8.82926 | 21749 ft | 382 kts | 245° |
| 2026-05-06 19:08 | 51.41887 | 8.78966 | 21749 ft | 382 kts | 245° |
| 2026-05-06 19:08 | 51.40780 | 8.75084 | 21750 ft | 381 kts | 242° |
| 2026-05-06 19:09 | 51.39459 | 8.71319 | 21750 ft | 381 kts | 239° |
| 2026-05-06 19:09 | 51.38604 | 8.68964 | 21750 ft | 381 kts | 239° |
| 2026-05-06 19:09 | 51.37377 | 8.65578 | 21746 ft | 375 kts | 239° |
| 2026-05-06 19:09 | 51.36093 | 8.62031 | 21617 ft | 359 kts | 239° |
| 2026-05-06 19:10 | 51.34855 | 8.58619 | 21205 ft | 352 kts | 239° |
| 2026-05-06 19:10 | 51.33623 | 8.55230 | 20667 ft | 349 kts | 239° |
| 2026-05-06 19:10 | 51.32397 | 8.51862 | 20080 ft | 347 kts | 239° |
| 2026-05-06 19:10 | 51.31171 | 8.48493 | 19509 ft | 346 kts | 239° |
| 2026-05-06 19:11 | 51.29949 | 8.45142 | 18979 ft | 343 kts | 239° |
| 2026-05-06 19:11 | 51.28737 | 8.41819 | 18446 ft | 341 kts | 238° |
| 2026-05-06 19:11 | 51.27518 | 8.38476 | 17939 ft | 338 kts | 239° |
| 2026-05-06 19:11 | 51.26345 | 8.35247 | 17438 ft | 336 kts | 239° |
| 2026-05-06 19:12 | 51.25153 | 8.31969 | 16947 ft | 334 kts | 238° |
| 2026-05-06 19:12 | 51.23972 | 8.28727 | 16455 ft | 332 kts | 238° |
| 2026-05-06 19:12 | 51.22816 | 8.25554 | 15980 ft | 330 kts | 239° |
| 2026-05-06 19:12 | 51.21637 | 8.22321 | 15518 ft | 328 kts | 239° |
| 2026-05-06 19:13 | 51.20465 | 8.19108 | 15075 ft | 325 kts | 239° |
| 2026-05-06 19:13 | 51.19329 | 8.16002 | 14802 ft | 322 kts | 239° |
| 2026-05-06 19:13 | 51.18188 | 8.12881 | 14554 ft | 323 kts | 239° |
| 2026-05-06 19:13 | 51.17049 | 8.09771 | 14304 ft | 322 kts | 239° |
| 2026-05-06 19:14 | 51.15899 | 8.06634 | 14051 ft | 318 kts | 239° |
| 2026-05-06 19:14 | 51.14793 | 8.03618 | 13804 ft | 305 kts | 239° |
| 2026-05-06 19:14 | 51.13721 | 8.00701 | 13555 ft | 294 kts | 239° |
| 2026-05-06 19:14 | 51.12688 | 7.97893 | 13307 ft | 284 kts | 239° |
| 2026-05-06 19:15 | 51.11711 | 7.95237 | 13060 ft | 278 kts | 239° |
| 2026-05-06 19:15 | 51.10713 | 7.92531 | 12803 ft | 279 kts | 239° |
| 2026-05-06 19:15 | 51.09687 | 7.89749 | 12540 ft | 279 kts | 239° |
| 2026-05-06 19:15 | 51.08698 | 7.87070 | 12288 ft | 279 kts | 239° |
| 2026-05-06 19:16 | 51.07712 | 7.84401 | 12035 ft | 278 kts | 239° |
| 2026-05-06 19:16 | 51.06665 | 7.81766 | 11790 ft | 276 kts | 230° |
| 2026-05-06 19:16 | 51.05129 | 7.79799 | 11600 ft | 281 kts | 212° |
| 2026-05-06 19:16 | 51.03404 | 7.78315 | 11190 ft | 279 kts | 210° |
| 2026-05-06 19:17 | 51.01691 | 7.76859 | 10844 ft | 274 kts | 210° |
| 2026-05-06 19:17 | 51.00006 | 7.75424 | 10478 ft | 269 kts | 210° |
| 2026-05-06 19:17 | 50.98343 | 7.74009 | 10268 ft | 260 kts | 210° |
| 2026-05-06 19:17 | 50.96787 | 7.72685 | 10124 ft | 249 kts | 210° |
| 2026-05-06 19:18 | 50.95282 | 7.71407 | 9947 ft | 241 kts | 210° |
| 2026-05-06 19:18 | 50.93819 | 7.70162 | 9639 ft | 238 kts | 210° |
| 2026-05-06 19:18 | 50.92312 | 7.68880 | 9296 ft | 237 kts | 210° |
| 2026-05-06 19:18 | 50.90816 | 7.67609 | 8942 ft | 236 kts | 210° |
| 2026-05-06 19:19 | 50.89363 | 7.66374 | 8594 ft | 235 kts | 210° |
| 2026-05-06 19:19 | 50.87981 | 7.65249 | 8270 ft | 235 kts | 203° |
| 2026-05-06 19:19 | 50.86456 | 7.64923 | 7919 ft | 239 kts | 178° |
| 2026-05-06 19:19 | 50.84757 | 7.65283 | 7551 ft | 239 kts | 174° |
| 2026-05-06 19:20 | 50.83150 | 7.65691 | 7220 ft | 238 kts | 174° |
| 2026-05-06 19:20 | 50.81616 | 7.66079 | 6920 ft | 236 kts | 174° |
| 2026-05-06 19:20 | 50.80103 | 7.66458 | 6747 ft | 233 kts | 174° |
| 2026-05-06 19:20 | 50.78478 | 7.66863 | 6738 ft | 236 kts | 174° |
| 2026-05-06 19:21 | 50.76901 | 7.67253 | 6745 ft | 236 kts | 174° |
| 2026-05-06 19:21 | 50.75315 | 7.67646 | 6746 ft | 237 kts | 174° |
| 2026-05-06 19:21 | 50.73758 | 7.67786 | 6746 ft | 233 kts | 193° |
| 2026-05-06 19:21 | 50.72342 | 7.66629 | 6747 ft | 230 kts | 227° |
| 2026-05-06 19:22 | 50.71468 | 7.64465 | 6753 ft | 231 kts | 243° |
| 2026-05-06 19:22 | 50.70768 | 7.62204 | 6605 ft | 225 kts | 244° |
| 2026-05-06 19:22 | 50.70087 | 7.59960 | 6474 ft | 211 kts | 244° |
| 2026-05-06 19:22 | 50.69481 | 7.57948 | 6319 ft | 195 kts | 244° |
| 2026-05-06 19:23 | 50.68905 | 7.56042 | 6025 ft | 188 kts | 244° |
| 2026-05-06 19:23 | 50.68353 | 7.54230 | 5790 ft | 184 kts | 244° |
| 2026-05-06 19:23 | 50.67800 | 7.52438 | 5619 ft | 188 kts | 248° |
| 2026-05-06 19:23 | 50.67169 | 7.50562 | 5311 ft | 191 kts | 248° |
| 2026-05-06 19:24 | 50.67008 | 7.48575 | 5066 ft | 186 kts | 279° |
| 2026-05-06 19:24 | 50.67236 | 7.46601 | 4855 ft | 186 kts | 283° |
| 2026-05-06 19:24 | 50.67503 | 7.44583 | 4632 ft | 186 kts | 284° |
| 2026-05-06 19:24 | 50.67842 | 7.42612 | 4399 ft | 182 kts | 298° |
| 2026-05-06 19:25 | 50.68619 | 7.41126 | 4175 ft | 171 kts | 316° |
| 2026-05-06 19:25 | 50.69448 | 7.39801 | 3960 ft | 162 kts | 315° |
| 2026-05-06 19:25 | 50.70284 | 7.38530 | 3720 ft | 160 kts | 317° |
| 2026-05-06 19:25 | 50.71104 | 7.37336 | 3485 ft | 159 kts | 318° |
| 2026-05-06 19:26 | 50.71918 | 7.36161 | 3257 ft | 159 kts | 318° |
| 2026-05-06 19:26 | 50.72741 | 7.34978 | 3029 ft | 158 kts | 317° |
| 2026-05-06 19:26 | 50.73543 | 7.33825 | 2844 ft | 155 kts | 317° |
| 2026-05-06 19:26 | 50.74371 | 7.32635 | 2851 ft | 157 kts | 317° |
| 2026-05-06 19:27 | 50.75208 | 7.31434 | 2849 ft | 157 kts | 317° |
| 2026-05-06 19:27 | 50.76020 | 7.30265 | 2829 ft | 158 kts | 317° |
| 2026-05-06 19:27 | 50.76833 | 7.29096 | 2653 ft | 164 kts | 317° |
| 2026-05-06 19:27 | 50.77700 | 7.27848 | 2425 ft | 162 kts | 317° |
| 2026-05-06 19:28 | 50.78554 | 7.26618 | 2208 ft | 161 kts | 317° |
| 2026-05-06 19:28 | 50.79392 | 7.25411 | 1984 ft | 159 kts | 317° |
| 2026-05-06 19:28 | 50.80201 | 7.24245 | 1781 ft | 151 kts | 317° |
| 2026-05-06 19:28 | 50.80994 | 7.23102 | 1558 ft | 149 kts | 317° |
| 2026-05-06 19:29 | 50.81775 | 7.21975 | 1355 ft | 147 kts | 317° |
| 2026-05-06 19:29 | 50.82523 | 7.20895 | 1131 ft | 137 kts | 317° |
| 2026-05-06 19:29 | 50.83172 | 7.19950 | 940 ft | 123 kts | 316° |
| 2026-05-06 19:29 | 50.83796 | 7.19031 | 858 ft | 131 kts | 317° |
| 2026-05-06 19:30 | 50.84499 | 7.17996 | 739 ft | 137 kts | 319° |
| 2026-05-06 19:30 | 50.85211 | 7.17004 | 452 ft | 130 kts | 317° |
| 2026-05-06 19:30 | 50.85848 | 7.16088 | 307 ft | 122 kts | 317° |
| 2026-05-06 19:30 | 50.86411 | 7.15280 | 277 ft | 79 kts | 317° |
| 2026-05-06 19:31 | 50.86705 | 7.14850 | 267 ft | 43 kts | 314° |
| 2026-05-06 19:31 | 50.86835 | 7.14619 | 260 ft | 13 kts | 300° |
| 2026-05-06 19:31 | 50.86879 | 7.14388 | 255 ft | 6 kts | 279° |
| 2026-05-06 19:32 | 50.86883 | 7.14349 | 255 ft | 0 kts | 278° |
| 2026-05-06 19:32 | 50.86887 | 7.14314 | 254 ft | 8 kts | 282° |
| 2026-05-06 19:32 | 50.86899 | 7.14213 | 253 ft | 10 kts | 279° |
| 2026-05-06 19:33 | 50.86916 | 7.14107 | 252 ft | 15 kts | 297° |
| 2026-05-06 19:33 | 50.87005 | 7.13958 | 248 ft | 20 kts | 318° |
| 2026-05-06 19:33 | 50.87112 | 7.13804 | 246 ft | 18 kts | 317° |
| 2026-05-06 19:33 | 50.87219 | 7.13650 | 243 ft | 21 kts | 317° |
| 2026-05-06 19:34 | 50.87333 | 7.13486 | 241 ft | 22 kts | 317° |
| 2026-05-06 19:34 | 50.87455 | 7.13308 | 241 ft | 21 kts | 316° |
| 2026-05-06 19:34 | 50.87571 | 7.13136 | 242 ft | 20 kts | 316° |
| 2026-05-06 19:34 | 50.87661 | 7.13009 | 245 ft | 13 kts | 317° |
| 2026-05-06 19:35 | 50.87729 | 7.12907 | 245 ft | 13 kts | 317° |
| 2026-05-06 19:35 | 50.87786 | 7.12806 | 245 ft | 12 kts | 284° |
| 2026-05-06 19:35 | 50.87774 | 7.12676 | 245 ft | 11 kts | 254° |
| 2026-05-06 19:35 | 50.87755 | 7.12576 | 243 ft | 11 kts | 246° |
| 2026-05-06 19:36 | 50.87678 | 7.12503 | 239 ft | 16 kts | 200° |
| 2026-05-06 19:36 | 50.87568 | 7.12447 | 235 ft | 19 kts | 198° |
| 2026-05-06 19:36 | 50.87441 | 7.12382 | 229 ft | 21 kts | 197° |
| 2026-05-06 19:36 | 50.87358 | 7.12340 | 228 ft | 11 kts | 198° |
| 2026-05-06 19:37 | 50.87311 | 7.12317 | 228 ft | 0 kts | 197° |
| 2026-05-06 19:37 | 50.87310 | 7.12317 | 228 ft | 0 kts | 197° |
| 2026-05-06 19:37 | 50.87270 | 7.12296 | 227 ft | 8 kts | 198° |
| 2026-05-06 19:37 | 50.87207 | 7.12286 | 227 ft | 11 kts | 163° |
| 2026-05-06 19:38 | 50.87155 | 7.12336 | 228 ft | 3 kts | 137° |
| 2026-05-06 19:38 | 50.87135 | 7.12381 | 229 ft | 6 kts | 96° |
| 2026-05-06 19:38 | 50.87148 | 7.12430 | 230 ft | 2 kts | 49° |
| 2026-05-06 19:38 | 50.87166 | 7.12461 | 231 ft | 3 kts | 47° |
| 2026-05-06 19:39 | 50.87180 | 7.12484 | 231 ft | 1 kts | 44° |
| 2026-05-06 19:39 | 50.87192 | 7.12485 | 231 ft | 0 kts | 322° |
| 2026-05-06 19:39 | 50.87202 | 7.12466 | 231 ft | 1 kts | 318° |
| 2026-05-06 19:39 | 50.87204 | 7.12464 | 231 ft | 0 kts | 319° |